Time;durP1;ratioP1;P1;durP2;ratioP2;P2;SDS_P1;SDS_P2;PMS_P1;PMS_P2;Temp;Humidity;BMP_temperature;BMP_pressure;BME280_temperature;BME280_humidity;BME280_pressure;Samples;Min_cycle;Max_cycle;Signal;HPM_P1;HPM_P2
2022/10/30 00:00:37;;;;;;;20.20;10.47;;;;;;;15.47;89.29;100460.28;6225267;23;20446;-80
2022/10/30 00:03:04;;;;;;;15.87;11.63;;;;;;;15.40;89.47;100458.28;6226140;23;20425;-80
2022/10/30 00:05:31;;;;;;;19.40;11.60;;;;;;;15.34;89.68;100460.81;6225737;23;21298;-80
2022/10/30 00:07:58;;;;;;;18.67;11.03;;;;;;;15.35;89.83;100457.94;6224870;23;20456;-80
2022/10/30 00:10:25;;;;;;;16.70;10.83;;;;;;;15.33;89.67;100464.50;6225446;23;20414;-80
2022/10/30 00:12:53;;;;;;;13.60;9.60;;;;;;;15.13;90.35;100447.81;6225751;23;20421;-80
2022/10/30 00:15:20;;;;;;;19.03;10.73;;;;;;;15.25;90.04;100452.69;6225274;23;20409;-79
2022/10/30 00:17:46;;;;;;;15.87;10.13;;;;;;;15.30;89.67;100454.06;6225145;23;20969;-79
2022/10/30 00:20:13;;;;;;;20.20;11.27;;;;;;;15.33;89.22;100454.56;6225133;23;20562;-80
2022/10/30 00:22:39;;;;;;;17.23;10.30;;;;;;;15.39;88.72;100443.13;6225216;23;20437;-80
2022/10/30 00:25:07;;;;;;;16.37;10.07;;;;;;;15.44;88.20;100448.84;6226133;23;20394;-80
2022/10/30 00:27:33;;;;;;;20.07;11.40;;;;;;;15.50;87.99;100446.50;6225745;23;20511;-80
2022/10/30 00:30:01;;;;;;;13.40;10.17;;;;;;;15.46;87.85;100442.47;6226137;23;20498;-80
2022/10/30 00:32:28;;;;;;;17.60;10.00;;;;;;;15.52;87.54;100453.41;6225015;23;20477;-80
2022/10/30 00:34:54;;;;;;;14.37;9.60;;;;;;;15.56;86.62;100451.22;6226354;23;20389;-80
2022/10/30 00:37:21;;;;;;;15.43;9.97;;;;;;;15.61;86.65;100441.63;6224481;23;20445;-80
2022/10/30 00:39:48;;;;;;;16.97;9.80;;;;;;;15.54;86.65;100446.00;6226613;23;20600;-80
2022/10/30 00:42:16;;;;;;;15.03;9.67;;;;;;;15.49;86.79;100445.66;6224702;23;20492;-80
2022/10/30 00:44:46;;;;;;;15.17;9.50;;;;;;;15.43;87.15;100444.47;6226165;23;20401;-80
2022/10/30 00:47:18;;;;;;;20.97;10.93;;;;;;;15.39;87.33;100437.72;6224340;23;20446;-79
2022/10/30 00:49:51;;;;;;;13.97;9.67;;;;;;;15.37;87.50;100447.84;6225815;23;20489;-79
2022/10/30 00:52:20;;;;;;;16.40;10.53;;;;;;;15.33;87.43;100448.31;6223907;23;20469;-79
2022/10/30 00:54:47;;;;;;;16.23;9.47;;;;;;;15.42;86.65;100448.19;6226152;23;20464;-80
2022/10/30 00:57:13;;;;;;;27.83;9.80;;;;;;;15.34;87.03;100450.03;6224507;23;20476;-80
2022/10/30 00:59:41;;;;;;;18.47;9.17;;;;;;;15.37;86.78;100445.16;6226149;23;20855;-80
2022/10/30 01:02:08;;;;;;;15.60;9.47;;;;;;;15.31;86.70;100440.44;6224236;23;20445;-81
2022/10/30 01:04:38;;;;;;;13.87;8.20;;;;;;;15.45;85.09;100449.72;6226502;23;20418;-81
2022/10/30 01:07:08;;;;;;;11.83;5.77;;;;;;;15.74;77.72;100435.69;6224054;23;20958;-81
2022/10/30 01:09:35;;;;;;;14.60;8.70;;;;;;;15.65;82.58;100436.72;6225605;23;20437;-78
2022/10/30 01:12:02;;;;;;;12.83;8.27;;;;;;;15.54;83.25;100446.00;6224083;23;20465;-79
2022/10/30 01:14:29;;;;;;;20.20;9.50;;;;;;;15.21;86.67;100453.22;6225875;23;20394;-79
2022/10/30 01:17:09;;;;;;;12.70;9.23;;;;;;;15.20;87.14;100443.44;6224142;23;20448;-79
2022/10/30 01:19:42;;;;;;;16.40;9.00;;;;;;;15.26;86.80;100450.88;6225686;23;20394;-79
2022/10/30 01:22:21;;;;;;;17.23;10.10;;;;;;;15.22;86.74;100450.38;6224221;23;20473;-79
2022/10/30 01:25:05;;;;;;;12.67;9.60;;;;;;;15.14;87.59;100447.66;6226346;23;20397;-79
2022/10/30 01:27:39;;;;;;;20.73;9.57;;;;;;;15.23;87.28;100454.72;6224710;23;20425;-79
2022/10/30 01:30:17;;;;;;;11.90;9.00;;;;;;;15.22;87.13;100454.88;6225383;23;20403;-79
2022/10/30 01:32:53;;;;;;;10.33;8.87;;;;;;;15.19;86.82;100453.38;6224978;23;20497;-79
2022/10/30 01:35:27;;;;;;;16.30;9.20;;;;;;;15.32;85.46;100455.56;6224651;23;20406;-79
2022/10/30 01:37:57;;;;;;;10.43;7.77;;;;;;;15.31;85.08;100455.75;6224418;23;20449;-80
2022/10/30 01:40:24;;;;;;;14.47;8.73;;;;;;;15.44;84.35;100462.31;6224996;23;20395;-80
2022/10/30 01:42:53;;;;;;;12.23;8.50;;;;;;;15.47;83.85;100454.91;6226247;23;20464;-80
2022/10/30 01:45:30;;;;;;;16.57;7.93;;;;;;;15.58;81.52;100451.88;6226448;23;20414;-79
2022/10/30 01:48:19;;;;;;;13.30;7.60;;;;;;;15.85;77.02;100457.97;6225686;23;20452;-79
2022/10/30 01:50:52;;;;;;;11.97;6.23;;;;;;;15.98;75.30;100456.44;6226515;23;20461;-79
2022/10/30 01:53:29;;;;;;;11.33;5.77;;;;;;;16.06;74.73;100455.59;6227121;23;20452;-78
2022/10/30 01:56:05;;;;;;;12.47;6.43;;;;;;;15.91;78.54;100460.00;6226454;23;20529;-78
2022/10/30 01:58:37;;;;;;;9.17;5.73;;;;;;;15.95;77.67;100456.81;6226583;23;20420;-78
2022/10/30 02:01:04;;;;;;;10.13;5.60;;;;;;;16.17;72.80;100455.22;6225970;23;21021;-77
2022/10/30 02:03:31;;;;;;;8.40;5.37;;;;;;;16.35;71.72;100455.03;6227495;23;20425;-77
2022/10/30 02:05:59;;;;;;;13.60;5.87;;;;;;;16.67;68.78;100457.78;6225888;23;20438;-78
2022/10/30 02:08:27;;;;;;;10.03;5.63;;;;;;;16.89;68.15;100456.16;6226936;23;20449;-77
2022/10/30 02:10:54;;;;;;;7.77;4.70;;;;;;;17.16;66.62;100452.13;6225941;23;20495;-77
2022/10/30 02:13:20;;;;;;;15.60;5.00;;;;;;;17.34;63.84;100440.19;6226681;23;20439;-77
2022/10/30 02:15:47;;;;;;;9.03;4.83;;;;;;;17.41;63.73;100449.25;6226605;23;20818;-77
2022/10/30 02:18:14;;;;;;;9.63;4.17;;;;;;;17.49;62.29;100444.63;6226450;23;20414;-77
2022/10/30 02:20:42;;;;;;;10.30;4.80;;;;;;;17.62;61.67;100440.47;6226161;23;20438;-77
2022/10/30 02:23:12;;;;;;;10.03;5.30;;;;;;;17.36;64.53;100447.13;6226689;23;20425;-77
2022/10/30 02:25:38;;;;;;;11.30;6.90;;;;;;;16.19;76.97;100447.78;6226657;23;20476;-77
2022/10/30 02:28:05;;;;;;;10.77;7.00;;;;;;;15.82;78.28;100443.81;6226797;23;20414;-77
2022/10/30 02:30:31;;;;;;;13.30;8.00;;;;;;;15.86;78.45;100449.72;6226291;23;20453;-78
2022/10/30 02:32:58;;;;;;;14.40;7.77;;;;;;;15.84;78.50;100450.91;6226354;23;20410;-77
2022/10/30 02:35:25;;;;;;;10.50;7.70;;;;;;;15.80;78.57;100458.50;6225913;23;20422;-77
2022/10/30 02:37:53;;;;;;;11.30;7.03;;;;;;;15.79;78.08;100449.53;6226300;23;20548;-78
2022/10/30 02:40:19;;;;;;;17.67;8.40;;;;;;;15.80;77.43;100462.03;6226248;23;20414;-79
2022/10/30 02:42:51;;;;;;;10.77;7.27;;;;;;;16.00;76.13;100454.44;6225994;23;20740;-78
2022/10/30 02:45:18;;;;;;;11.27;7.47;;;;;;;15.96;77.37;100450.38;6226158;23;20418;-78
2022/10/30 02:47:45;;;;;;;14.60;7.63;;;;;;;15.84;78.25;100453.59;6225574;23;20476;-78
2022/10/30 02:50:11;;;;;;;14.17;7.70;;;;;;;15.72;78.56;100442.28;6225830;23;20466;-78
2022/10/30 02:52:38;;;;;;;10.00;6.90;;;;;;;15.63;79.87;100454.94;6225310;23;20414;-76
2022/10/30 02:55:06;;;;;;;10.07;6.70;;;;;;;15.53;80.25;100448.84;6226626;23;20421;-76
2022/10/30 02:57:33;;;;;;;12.27;5.37;;;;;;;15.69;74.89;100437.22;6225234;23;20470;-76
2022/10/30 03:00:00;;;;;;;11.70;6.70;;;;;;;15.87;76.09;100447.88;6226852;23;20386;-79
2022/10/30 03:02:26;;;;;;;10.80;6.63;;;;;;;15.57;79.27;100455.59;6224889;23;20465;-77
2022/10/30 03:04:53;;;;;;;12.30;7.80;;;;;;;15.32;81.02;100452.03;6227116;23;20386;-78
2022/10/30 03:07:20;;;;;;;12.97;9.00;;;;;;;15.13;82.91;100447.81;6224455;23;20441;-78
2022/10/30 03:09:47;;;;;;;11.73;8.10;;;;;;;14.91;85.51;100455.47;6226672;23;20462;-78
2022/10/30 03:12:15;;;;;;;17.17;8.07;;;;;;;15.12;84.56;100448.81;6209668;23;20504;-78
2022/10/30 03:14:41;;;;;;;11.40;7.73;;;;;;;15.14;84.12;100468.34;6226723;23;20401;-78
2022/10/30 03:17:08;;;;;;;14.87;8.97;;;;;;;15.05;84.28;100459.38;6225189;23;20479;-79
2022/10/30 03:19:35;;;;;;;10.90;8.27;;;;;;;14.88;84.77;100459.34;6226235;23;20425;-79
2022/10/30 03:22:02;;;;;;;15.93;8.50;;;;;;;14.95;84.21;100461.41;6224511;23;20441;-77
2022/10/30 03:24:28;;;;;;;14.00;7.10;;;;;;;15.01;83.54;100460.72;6226741;23;20445;-79
2022/10/30 03:26:55;;;;;;;10.03;7.00;;;;;;;15.00;84.00;100451.00;6225291;23;20453;-79
2022/10/30 03:29:23;;;;;;;13.10;7.90;;;;;;;14.93;84.22;100449.94;6226071;23;20438;-79
2022/10/30 03:31:51;;;;;;;11.60;8.30;;;;;;;14.87;84.33;100444.19;6224825;23;20442;-79
2022/10/30 03:34:17;;;;;;;9.67;6.20;;;;;;;14.67;84.84;100432.88;6226048;23;20522;-78
2022/10/30 03:36:44;;;;;;;13.90;8.07;;;;;;;14.75;84.58;100440.13;6224727;23;20444;-78
2022/10/30 03:39:11;;;;;;;12.07;8.00;;;;;;;14.80;84.16;100453.94;6225970;23;20406;-78
2022/10/30 03:41:37;;;;;;;11.93;6.70;;;;;;;14.78;84.52;100455.13;6225245;23;20460;-79
2022/10/30 03:44:04;;;;;;;13.27;7.13;;;;;;;14.78;84.59;100460.50;6226285;23;20437;-79
2022/10/30 03:46:32;;;;;;;12.03;7.30;;;;;;;14.75;84.88;100450.06;6225115;23;20449;-79
2022/10/30 03:48:59;;;;;;;11.10;8.37;;;;;;;14.69;85.55;100452.41;6224732;23;20514;-79
2022/10/30 03:51:26;;;;;;;14.67;7.40;;;;;;;14.89;84.78;100454.81;6224525;23;20430;-79
2022/10/30 03:53:52;;;;;;;11.63;7.63;;;;;;;14.77;84.77;100465.06;6226141;23;20402;-79
2022/10/30 03:56:19;;;;;;;16.33;7.10;;;;;;;14.65;84.63;100453.72;6225195;23;20505;-79
2022/10/30 03:58:46;;;;;;;12.43;7.80;;;;;;;14.52;86.42;100461.38;6225469;23;20417;-79
2022/10/30 04:01:13;;;;;;;12.90;7.87;;;;;;;14.46;87.29;100468.25;6225187;23;20487;-79
2022/10/30 04:03:41;;;;;;;11.70;8.10;;;;;;;14.56;87.35;100461.88;6225930;23;20481;-79
2022/10/30 04:06:07;;;;;;;11.90;8.77;;;;;;;14.53;87.07;100471.13;6224624;23;20438;-79
2022/10/30 04:08:34;;;;;;;15.10;7.33;;;;;;;14.58;87.42;100476.91;6225231;23;20421;-79
2022/10/30 04:11:01;;;;;;;9.80;7.80;;;;;;;14.45;88.11;100465.72;6224890;23;20465;-79
2022/10/30 04:13:27;;;;;;;16.90;7.90;;;;;;;14.33;88.94;100465.16;6225636;23;20449;-80
2022/10/30 04:15:54;;;;;;;10.57;8.33;;;;;;;14.39;88.76;100467.22;6224911;23;20434;-79
2022/10/30 04:18:21;;;;;;;15.13;7.60;;;;;;;14.44;88.33;100461.31;6224692;23;20414;-79
2022/10/30 04:20:49;;;;;;;12.60;8.50;;;;;;;14.43;88.30;100462.34;6225227;23;20453;-80
2022/10/30 04:23:17;;;;;;;10.00;7.20;;;;;;;14.46;88.29;100457.50;6225054;23;20442;-80
2022/10/30 04:25:44;;;;;;;14.37;7.60;;;;;;;14.55;87.44;100457.50;6225391;23;20458;-81
2022/10/30 04:28:11;;;;;;;13.17;6.83;;;;;;;14.63;86.23;100455.75;6225338;23;20405;-80
2022/10/30 04:30:39;;;;;;;7.83;6.80;;;;;;;14.47;87.24;100453.78;6225525;23;21053;-78
2022/10/30 04:33:07;;;;;;;12.87;8.20;;;;;;;14.50;87.22;100461.53;6225571;23;20440;-78
2022/10/30 04:35:36;;;;;;;11.60;7.03;;;;;;;14.52;86.77;100460.53;6225230;23;20437;-78
2022/10/30 04:38:06;;;;;;;10.33;6.93;;;;;;;14.30;87.90;100454.69;6224584;23;20414;-78
2022/10/30 04:40:34;;;;;;;11.60;8.10;;;;;;;14.38;88.28;100453.91;6225442;23;20502;-78
2022/10/30 04:43:01;;;;;;;15.83;7.53;;;;;;;14.37;88.38;100457.59;6225501;23;20402;-78
2022/10/30 04:45:28;;;;;;;12.60;7.90;;;;;;;14.29;88.30;100459.25;6225324;23;20781;-79
2022/10/30 04:48:00;;;;;;;14.70;7.40;;;;;;;14.32;88.61;100450.84;6224903;23;20465;-78
2022/10/30 04:50:27;;;;;;;13.23;8.30;;;;;;;14.27;88.46;100450.50;6224778;23;20434;-78
2022/10/30 04:52:59;;;;;;;11.20;8.60;;;;;;;14.22;88.45;100446.59;6224703;23;20966;-79
2022/10/30 04:55:27;;;;;;;10.97;8.33;;;;;;;14.09;88.81;100453.22;6225482;23;20390;-78
2022/10/30 04:57:56;;;;;;;14.20;9.20;;;;;;;14.01;89.46;100455.88;6225130;23;20414;-78
2022/10/30 05:00:22;;;;;;;10.87;8.07;;;;;;;13.94;89.90;100458.34;6225025;23;20409;-80
2022/10/30 05:02:49;;;;;;;14.70;9.23;;;;;;;13.94;90.25;100460.22;6225488;23;20438;-79
2022/10/30 05:05:16;;;;;;;12.23;7.57;;;;;;;13.88;90.17;100461.66;6225017;23;20930;-79
2022/10/30 05:07:42;;;;;;;13.73;7.90;;;;;;;13.85;90.32;100459.31;6224623;23;20437;-79
2022/10/30 05:10:13;;;;;;;16.10;8.10;;;;;;;13.76;90.39;100462.91;6224594;23;20522;-79
2022/10/30 05:12:41;;;;;;;9.97;8.70;;;;;;;13.70;90.67;100459.00;6225494;23;20410;-80
2022/10/30 05:15:09;;;;;;;12.33;7.63;;;;;;;13.71;90.86;100459.84;6224912;23;20697;-80
2022/10/30 05:17:35;;;;;;;13.80;8.43;;;;;;;13.61;90.80;100457.28;6225429;23;20732;-80
2022/10/30 05:20:02;;;;;;;15.60;8.43;;;;;;;13.62;90.72;100458.09;6227647;23;20425;-80
2022/10/30 05:22:28;;;;;;;11.60;7.30;;;;;;;13.51;90.92;100453.81;6225888;23;20470;-81
2022/10/30 05:24:55;;;;;;;16.87;8.73;;;;;;;13.34;92.42;100450.13;6227806;23;20714;-80
2022/10/30 05:27:22;;;;;;;12.73;8.20;;;;;;;13.35;92.43;100451.84;6226191;23;20442;-79
2022/10/30 05:29:50;;;;;;;18.07;9.10;;;;;;;13.27;92.08;100454.41;6226827;23;20468;-78
2022/10/30 05:32:16;;;;;;;15.73;8.87;;;;;;;13.23;92.54;100451.19;6226342;23;20445;-79
2022/10/30 05:34:43;;;;;;;9.40;7.97;;;;;;;13.11;92.50;100461.31;6227285;23;20413;-79
2022/10/30 05:37:09;;;;;;;16.80;8.53;;;;;;;13.04;92.80;100454.84;6225860;23;20441;-79
2022/10/30 05:39:36;;;;;;;14.77;8.77;;;;;;;13.06;92.86;100458.22;6227377;23;20382;-79
2022/10/30 05:42:02;;;;;;;17.03;8.60;;;;;;;13.06;92.93;100458.22;6226085;23;20449;-78
2022/10/30 05:44:29;;;;;;;15.73;9.10;;;;;;;13.04;93.05;100454.84;6227334;23;20421;-78
2022/10/30 05:46:57;;;;;;;13.03;9.27;;;;;;;13.13;93.57;100456.63;6226224;23;20441;-78
2022/10/30 05:49:24;;;;;;;11.87;8.90;;;;;;;13.17;94.15;100462.53;6226621;23;20457;-79
2022/10/30 05:51:50;;;;;;;20.63;10.67;;;;;;;13.15;94.47;100467.22;6225671;23;20441;-79
2022/10/30 05:54:17;;;;;;;11.00;8.37;;;;;;;13.11;94.25;100463.97;6226787;23;20402;-79
2022/10/30 05:56:46;;;;;;;17.13;9.40;;;;;;;13.05;94.26;100461.06;6225822;23;20469;-79
2022/10/30 05:59:13;;;;;;;12.67;9.40;;;;;;;13.04;94.30;100464.72;6226816;23;20741;-79
2022/10/30 06:01:39;;;;;;;13.77;9.23;;;;;;;13.05;94.31;100463.75;6226456;23;20921;-79
2022/10/30 06:04:08;;;;;;;14.30;8.47;;;;;;;13.12;94.46;100463.00;6226803;23;20390;-79
2022/10/30 06:06:34;;;;;;;14.10;8.00;;;;;;;13.13;94.07;100470.03;6225815;23;20487;-78
2022/10/30 06:09:01;;;;;;;10.93;8.20;;;;;;;13.08;93.81;100466.13;6226445;23;20744;-78
2022/10/30 06:11:28;;;;;;;14.90;8.80;;;;;;;13.03;93.09;100471.94;6225836;23;20449;-79
2022/10/30 06:13:54;;;;;;;11.80;8.43;;;;;;;13.07;92.26;100475.16;6226855;23;20417;-79
2022/10/30 06:16:21;;;;;;;13.10;8.73;;;;;;;13.26;90.71;100479.56;6226505;23;20449;-78
2022/10/30 06:18:47;;;;;;;15.93;8.23;;;;;;;13.51;87.76;100480.69;6225960;23;20445;-79
2022/10/30 06:21:15;;;;;;;12.43;7.20;;;;;;;13.72;85.82;100480.34;6225579;23;20457;-79
2022/10/30 06:23:42;;;;;;;10.13;7.10;;;;;;;13.79;84.60;100478.72;6226675;23;20752;-78
2022/10/30 06:26:09;;;;;;;12.27;7.40;;;;;;;13.82;84.48;100474.88;6226769;23;20437;-78
2022/10/30 06:28:35;;;;;;;10.77;7.30;;;;;;;13.88;83.48;100479.63;6226442;23;20414;-77
2022/10/30 06:31:02;;;;;;;16.03;7.90;;;;;;;13.51;84.79;100478.84;6226270;23;20480;-77
2022/10/30 06:33:28;;;;;;;10.43;7.77;;;;;;;13.16;87.45;100477.78;6226770;23;20414;-77
2022/10/30 06:35:55;;;;;;;12.37;7.20;;;;;;;13.22;88.14;100475.50;6225744;23;20468;-77
2022/10/30 06:38:23;;;;;;;10.17;7.37;;;;;;;12.99;88.43;100482.13;6226071;23;20438;-78
2022/10/30 06:43:30;;;;;;;13.33;8.30;;;;;;;13.11;91.20;100463.16;5133457;27;20391;-74
2022/10/30 06:45:57;;;;;;;13.20;7.97;;;;;;;13.03;91.45;100471.94;5105806;28;20496;-65
2022/10/30 06:48:24;;;;;;;13.53;8.43;;;;;;;13.29;90.68;100476.56;5098853;28;20465;-65
2022/10/30 06:50:54;;;;;;;11.93;7.10;;;;;;;13.33;90.71;100473.47;5113848;27;20611;-66
2022/10/30 06:53:20;;;;;;;13.70;9.33;;;;;;;13.33;89.99;100478.84;5109899;28;20952;-65
2022/10/30 06:55:54;;;;;;;13.67;7.97;;;;;;;13.70;88.51;100477.81;5103224;28;20455;-66
2022/10/30 06:58:21;;;;;;;13.60;7.87;;;;;;;13.68;88.29;100474.47;5116276;28;20542;-79
2022/10/30 07:00:49;;;;;;;13.13;9.60;;;;;;;13.90;87.96;100470.41;5114950;27;20616;-74
2022/10/30 07:03:15;;;;;;;10.77;7.73;;;;;;;14.12;87.33;100474.44;5109191;28;20459;-72
2022/10/30 07:05:42;;;;;;;12.70;8.33;;;;;;;14.43;86.14;100470.41;5115895;27;20470;-72
2022/10/30 07:08:09;;;;;;;13.57;8.23;;;;;;;14.45;85.53;100469.25;5116056;28;20498;-72
2022/10/30 07:10:35;;;;;;;12.77;7.63;;;;;;;14.61;84.27;100475.72;5106484;27;20863;-73
2022/10/30 07:13:02;;;;;;;15.30;8.07;;;;;;;14.76;83.35;100474.13;5096110;28;20504;-73
2022/10/30 07:15:28;;;;;;;12.00;7.87;;;;;;;14.96;82.84;100474.69;5095332;27;20898;-74
2022/10/30 07:17:58;;;;;;;13.80;7.77;;;;;;;15.03;81.98;100469.47;5095587;28;20486;-74
2022/10/30 07:20:26;;;;;;;17.90;8.10;;;;;;;15.14;81.22;100474.56;5095575;27;20456;-73
2022/10/30 07:22:53;;;;;;;11.93;8.27;;;;;;;15.34;80.34;100480.50;5081050;28;20525;-72
2022/10/30 07:25:20;;;;;;;7.83;6.73;;;;;;;16.15;78.24;100475.31;5093995;28;20975;-75
2022/10/30 07:27:48;;;;;;;12.87;6.93;;;;;;;17.16;72.04;100472.91;5095830;28;20567;-66
2022/10/30 07:30:16;;;;;;;13.00;8.13;;;;;;;17.41;70.19;100476.28;5093614;28;20478;-69
2022/10/30 07:32:43;;;;;;;12.87;7.73;;;;;;;18.65;66.63;100479.53;5094999;28;20507;-66
2022/10/30 07:35:12;;;;;;;15.20;7.90;;;;;;;18.10;67.44;100481.66;5080932;28;21016;-67
2022/10/30 07:37:39;;;;;;;9.43;6.87;;;;;;;18.27;65.40;100486.91;5075059;28;20549;-67
2022/10/30 07:40:07;;;;;;;9.63;6.53;;;;;;;18.34;66.20;100483.25;5073450;28;20547;-67
2022/10/30 07:42:34;;;;;;;11.73;7.37;;;;;;;18.30;65.50;100491.94;5071977;28;20487;-68
2022/10/30 07:45:01;;;;;;;10.90;6.87;;;;;;;19.30;63.57;100495.97;5065003;28;20526;-68
2022/10/30 07:47:27;;;;;;;14.17;7.27;;;;;;;21.01;56.62;100504.81;5076244;28;20586;-68
2022/10/30 07:49:54;;;;;;;10.73;7.03;;;;;;;21.44;54.66;100501.00;5076293;28;20465;-68
2022/10/30 07:52:22;;;;;;;13.93;7.03;;;;;;;21.81;53.58;100496.03;5066739;28;20512;-68
2022/10/30 07:54:58;;;;;;;10.80;7.03;;;;;;;20.09;57.32;100504.03;5062389;28;20494;-71
2022/10/30 07:57:24;;;;;;;11.17;7.80;;;;;;;19.59;60.01;100505.03;5062687;28;20558;-72
2022/10/30 07:59:51;;;;;;;9.87;7.60;;;;;;;21.20;54.90;100503.22;5063024;28;20484;-72
2022/10/30 08:02:18;;;;;;;10.93;6.27;;;;;;;21.75;52.48;100513.19;5063080;28;20515;-72
2022/10/30 08:04:44;;;;;;;10.73;6.43;;;;;;;21.05;53.82;100507.97;5063946;28;20503;-72
2022/10/30 08:07:11;;;;;;;11.30;5.90;;;;;;;21.83;52.60;100510.28;5059469;28;20509;-72
2022/10/30 08:09:39;;;;;;;17.60;6.67;;;;;;;21.87;51.19;100516.97;5062221;28;20489;-72
2022/10/30 08:12:06;;;;;;;12.33;6.00;;;;;;;21.75;51.81;100515.91;5062342;28;20484;-72
2022/10/30 08:14:34;;;;;;;12.00;6.07;;;;;;;23.18;48.11;100512.56;5063127;28;20488;-72
2022/10/30 08:17:00;;;;;;;7.70;5.60;;;;;;;23.07;48.14;100505.91;5051354;28;20484;-73
2022/10/30 08:19:27;;;;;;;9.90;6.53;;;;;;;23.43;47.26;100501.72;5038632;28;20561;-72
2022/10/30 08:21:55;;;;;;;9.00;5.20;;;;;;;24.19;44.74;100510.00;5040077;28;20506;-71
2022/10/30 08:24:22;;;;;;;12.73;5.37;;;;;;;22.89;48.16;100516.66;5062919;28;20445;-72
2022/10/30 08:26:52;;;;;;;12.03;6.07;;;;;;;21.42;52.03;100514.81;5063047;28;20559;-72
2022/10/30 08:29:19;;;;;;;11.90;5.23;;;;;;;22.18;51.50;100527.22;5063068;28;20516;-72
2022/10/30 08:31:48;;;;;;;13.53;6.00;;;;;;;22.52;50.93;100522.63;5062639;28;20507;-72
2022/10/30 08:34:14;;;;;;;14.20;6.00;;;;;;;22.56;50.45;100521.13;5062085;28;20473;-72
2022/10/30 08:36:42;;;;;;;8.17;5.90;;;;;;;23.12;49.49;100535.25;5048833;28;20502;-72
2022/10/30 08:39:08;;;;;;;10.60;5.47;;;;;;;23.78;46.77;100527.75;5038377;28;20462;-72
2022/10/30 08:41:35;;;;;;;13.73;5.70;;;;;;;24.92;44.22;100530.31;5040138;28;20927;-72
2022/10/30 08:44:03;;;;;;;14.30;6.20;;;;;;;25.45;44.19;100528.78;5039980;28;20522;-72
2022/10/30 08:46:30;;;;;;;10.20;6.07;;;;;;;25.35;43.37;100523.88;5040695;28;20493;-73
2022/10/30 08:48:56;;;;;;;14.60;6.17;;;;;;;24.88;45.24;100526.38;5053963;28;20524;-73
2022/10/30 08:51:23;;;;;;;16.63;6.33;;;;;;;23.27;48.28;100527.63;5058115;28;20485;-73
2022/10/30 08:53:50;;;;;;;15.43;6.60;;;;;;;24.05;46.27;100526.50;5041276;28;20550;-73
2022/10/30 08:56:18;;;;;;;8.33;5.93;;;;;;;23.44;47.79;100521.69;5050007;28;20516;-73
2022/10/30 08:58:45;;;;;;;12.00;6.17;;;;;;;24.50;45.53;100525.47;5057627;28;20478;-73
2022/10/30 09:01:13;;;;;;;10.73;6.13;;;;;;;24.16;45.54;100522.19;5050141;28;20516;-72
2022/10/30 09:03:39;;;;;;;12.70;6.17;;;;;;;27.00;38.68;100518.56;5055518;28;20453;-72
2022/10/30 09:06:06;;;;;;;9.13;5.40;;;;;;;27.40;38.09;100514.16;5039830;28;20546;-72
2022/10/30 09:08:33;;;;;;;11.83;5.33;;;;;;;27.77;37.34;100516.44;5040899;28;20496;-72
2022/10/30 09:11:00;;;;;;;9.30;5.30;;;;;;;26.48;38.85;100513.03;5041615;28;20497;-72
2022/10/30 09:13:27;;;;;;;12.90;5.07;;;;;;;25.30;42.51;100513.63;5040482;28;20536;-72
2022/10/30 09:15:53;;;;;;;7.50;4.60;;;;;;;26.52;40.37;100507.91;5042556;28;20505;-72
2022/10/30 09:18:21;;;;;;;15.70;4.83;;;;;;;26.49;40.35;100501.81;5041038;28;20453;-72
2022/10/30 09:20:48;;;;;;;14.17;5.30;;;;;;;27.26;38.77;100502.59;5041519;28;20956;-72
2022/10/30 09:23:15;;;;;;;8.33;4.60;;;;;;;28.41;36.73;100498.78;5041690;28;20493;-72
2022/10/30 09:25:42;;;;;;;8.77;5.60;;;;;;;29.62;34.64;100500.53;5040769;28;21009;-72
2022/10/30 09:28:08;;;;;;;10.47;5.27;;;;;;;29.07;34.98;100496.91;5041431;28;20470;-72
2022/10/30 09:30:35;;;;;;;8.50;5.50;;;;;;;28.65;36.07;100500.25;5042202;28;20771;-72
2022/10/30 09:33:02;;;;;;;9.40;5.13;;;;;;;28.21;36.06;100497.41;5040910;28;20517;-72
2022/10/30 09:35:31;;;;;;;12.80;6.33;;;;;;;27.66;38.18;100490.72;5041744;28;20631;-72
2022/10/30 09:37:57;;;;;;;8.03;4.47;;;;;;;29.62;31.24;100485.94;5037487;28;20451;-72
2022/10/30 09:40:31;;;;;;;6.07;4.63;;;;;;;30.18;30.32;100485.59;5042000;28;20554;-72
2022/10/30 09:43:03;;;;;;;13.27;5.03;;;;;;;29.76;30.74;100489.13;5038340;28;20989;-73
2022/10/30 09:45:44;;;;;;;14.37;4.87;;;;;;;29.86;31.18;100483.72;5047443;28;20502;-71
2022/10/30 09:48:35;;;;;;;9.63;4.57;;;;;;;30.11;30.42;100479.47;5034401;28;21191;-72
2022/10/30 09:51:21;;;;;;;12.17;4.10;;;;;;;30.34;30.05;100470.78;5039213;28;20465;-73
2022/10/30 09:53:57;;;;;;;9.60;4.63;;;;;;;29.05;31.67;100477.06;5038335;28;20528;-74
2022/10/30 09:56:28;;;;;;;13.47;5.03;;;;;;;27.49;34.79;100485.19;5044759;28;20568;-74
2022/10/30 09:59:03;;;;;;;11.30;4.80;;;;;;;27.29;34.61;100480.19;5040312;28;20486;-73
2022/10/30 10:01:37;;;;;;;14.70;4.47;;;;;;;26.95;34.42;100474.56;5043303;28;20576;-74
2022/10/30 10:04:09;;;;;;;14.63;4.93;;;;;;;27.34;34.45;100476.69;5040427;28;20616;-73
2022/10/30 10:06:41;;;;;;;11.83;6.07;;;;;;;27.05;34.62;100468.44;5037962;28;20478;-73
2022/10/30 10:09:14;;;;;;;12.70;4.50;;;;;;;27.41;34.20;100475.47;5038332;28;20497;-72
2022/10/30 10:11:42;;;;;;;12.90;4.60;;;;;;;28.16;35.21;100469.84;5039511;28;21001;-73
2022/10/30 10:14:13;;;;;;;9.60;4.60;;;;;;;28.11;35.90;100469.78;5040184;28;20509;-72
2022/10/30 10:16:41;;;;;;;14.83;5.20;;;;;;;27.26;37.32;100474.31;5037956;28;20580;-72
2022/10/30 10:19:13;;;;;;;8.80;4.20;;;;;;;28.01;34.91;100475.13;5040031;28;20504;-73
2022/10/30 10:21:44;;;;;;;10.83;5.37;;;;;;;27.63;34.97;100474.72;5037895;28;21053;-73
2022/10/30 10:24:14;;;;;;;10.03;4.67;;;;;;;29.45;32.73;100475.03;5039983;28;20497;-72
2022/10/30 10:26:48;;;;;;;7.70;4.20;;;;;;;29.39;31.76;100487.94;5039805;28;20485;-73
2022/10/30 10:29:31;;;;;;;10.07;4.60;;;;;;;29.50;32.78;100474.28;5039199;28;20469;-73
2022/10/30 10:32:09;;;;;;;12.40;4.50;;;;;;;28.12;35.39;100483.28;5035962;28;20541;-72
2022/10/30 10:34:49;;;;;;;10.70;4.80;;;;;;;28.86;34.16;100471.06;5040494;28;20476;-73
2022/10/30 10:37:23;;;;;;;9.53;4.63;;;;;;;29.97;32.37;100471.66;5031188;28;20512;-73
2022/10/30 10:40:16;;;;;;;10.83;4.93;;;;;;;29.27;32.52;100476.25;5039678;28;20622;-73
2022/10/30 10:42:52;;;;;;;8.13;4.40;;;;;;;30.30;30.70;100469.66;5054676;28;20473;-73
2022/10/30 10:45:26;;;;;;;10.50;4.03;;;;;;;29.24;31.96;100469.31;5054436;28;20525;-73
2022/10/30 10:48:20;;;;;;;10.10;4.53;;;;;;;28.96;32.40;100469.53;5037203;28;20465;-73
2022/10/30 10:50:49;;;;;;;8.53;4.67;;;;;;;29.40;33.22;100472.25;5038927;28;20500;-73
2022/10/30 10:53:20;;;;;;;7.97;4.43;;;;;;;28.96;32.65;100469.53;5046445;28;20580;-72
2022/10/30 10:55:49;;;;;;;12.50;4.77;;;;;;;28.53;33.94;100477.50;5038344;28;20478;-73
2022/10/30 10:58:30;;;;;;;13.90;4.80;;;;;;;30.34;30.34;100467.19;5039579;28;20541;-73
2022/10/30 11:00:57;;;;;;;15.00;5.20;;;;;;;29.11;31.76;100458.69;5041167;28;20509;-73
2022/10/30 11:03:32;;;;;;;9.00;4.87;;;;;;;28.77;32.55;100456.13;5040282;28;20455;-73
2022/10/30 11:06:03;;;;;;;7.70;4.17;;;;;;;28.87;32.58;100452.63;5037854;28;20561;-73
2022/10/30 11:08:33;;;;;;;11.07;5.10;;;;;;;29.25;32.91;100443.47;5037801;28;20473;-73
2022/10/30 11:11:01;;;;;;;12.07;4.60;;;;;;;28.81;32.20;100454.50;5038566;28;20477;-73
2022/10/30 11:13:30;;;;;;;11.77;4.57;;;;;;;28.65;32.64;100442.47;5040390;28;20514;-73
2022/10/30 11:16:01;;;;;;;7.60;4.20;;;;;;;28.53;32.94;100439.81;5037780;28;20754;-72
2022/10/30 11:18:28;;;;;;;7.63;4.10;;;;;;;28.61;33.98;100438.59;5038950;28;20846;-73
2022/10/30 11:20:59;;;;;;;9.63;4.50;;;;;;;29.01;31.89;100440.16;5038622;28;20545;-73
2022/10/30 11:23:38;;;;;;;9.97;4.50;;;;;;;28.05;34.68;100438.59;5037556;28;20530;-72
2022/10/30 11:26:27;;;;;;;12.60;4.03;;;;;;;28.03;33.90;100427.03;5038208;28;20915;-73